createdAt,value
2018-08-16T00:01:45.702Z,19.34
2018-08-16T00:04:14.261Z,19.30
2018-08-16T00:06:43.292Z,19.29
2018-08-16T00:09:11.745Z,19.27
2018-08-16T00:11:41.727Z,19.28
2018-08-16T00:14:11.014Z,19.23
2018-08-16T00:16:39.464Z,19.28
2018-08-16T00:19:07.990Z,19.23
2018-08-16T00:21:36.467Z,19.21
2018-08-16T00:24:04.888Z,19.18
2018-08-16T00:26:33.430Z,19.20
2018-08-16T00:29:01.947Z,19.18
2018-08-16T00:31:30.491Z,19.21
2018-08-16T00:33:58.942Z,19.21
2018-08-16T00:36:27.481Z,19.22
2018-08-16T00:38:56.479Z,19.16
2018-08-16T00:41:25.515Z,19.15
2018-08-16T00:43:54.050Z,19.10
2018-08-16T00:46:22.525Z,19.11
2018-08-16T00:48:51.148Z,19.07
2018-08-16T00:51:19.594Z,19.00
2018-08-16T00:53:48.092Z,18.98
2018-08-16T00:56:16.879Z,19.00
2018-08-16T00:58:47.328Z,19.06
2018-08-16T01:01:16.767Z,19.11
2018-08-16T01:03:45.677Z,19.14
2018-08-16T01:06:14.216Z,19.19
2018-08-16T01:08:42.782Z,19.14
2018-08-16T01:11:11.348Z,19.09
2018-08-16T01:13:39.827Z,19.04
2018-08-16T01:16:08.237Z,18.99
2018-08-16T01:18:36.749Z,18.94
2018-08-16T01:21:06.228Z,18.87
2018-08-16T01:23:34.760Z,18.86
2018-08-16T01:26:03.330Z,18.82
2018-08-16T01:28:32.921Z,18.80
2018-08-16T01:31:02.177Z,18.73
2018-08-16T01:33:31.718Z,18.70
2018-08-16T01:36:00.204Z,18.73
2018-08-16T01:38:28.893Z,18.70
2018-08-16T01:40:57.360Z,18.64
2018-08-16T01:43:26.422Z,18.67
2018-08-16T01:45:55.218Z,18.61
2018-08-16T01:48:23.694Z,18.60
2018-08-16T01:50:52.120Z,18.62
2018-08-16T01:53:20.599Z,18.58
2018-08-16T01:55:49.072Z,18.59
2018-08-16T01:58:18.529Z,18.60
2018-08-16T02:00:47.020Z,18.57
2018-08-16T02:03:15.509Z,18.52
2018-08-16T02:05:44.169Z,18.58
2018-08-16T02:08:12.731Z,18.55
2018-08-16T02:10:41.458Z,18.56
2018-08-16T02:13:11.176Z,18.54
2018-08-16T02:15:45.079Z,18.55
2018-08-16T02:18:13.792Z,18.51
2018-08-16T02:20:42.451Z,18.55
2018-08-16T02:23:11.033Z,18.53
2018-08-16T02:25:39.597Z,18.47
2018-08-16T02:28:09.087Z,18.45
2018-08-16T02:30:37.632Z,18.48
2018-08-16T02:33:06.294Z,18.46
2018-08-16T02:35:35.337Z,18.46
2018-08-16T02:38:03.754Z,18.44
2018-08-16T02:40:32.207Z,18.43
2018-08-16T02:43:00.681Z,18.41
2018-08-16T02:45:30.007Z,18.42
2018-08-16T02:47:59.409Z,18.42
2018-08-16T02:50:27.909Z,18.39
2018-08-16T02:52:56.474Z,18.34
2018-08-16T02:55:25.027Z,18.30
2018-08-16T02:57:53.552Z,18.32
2018-08-16T03:00:22.258Z,18.33
2018-08-16T03:02:50.701Z,18.36
2018-08-16T03:05:20.079Z,18.35
2018-08-16T03:07:48.470Z,18.35
2018-08-16T03:10:17.177Z,18.34
2018-08-16T03:12:45.730Z,18.36
2018-08-16T03:15:14.885Z,18.34
2018-08-16T03:17:43.382Z,18.31
2018-08-16T03:20:11.858Z,18.29
2018-08-16T03:22:40.358Z,18.28
2018-08-16T03:25:09.441Z,18.31
2018-08-16T03:27:37.894Z,18.30
2018-08-16T03:30:07.837Z,18.28
2018-08-16T03:32:37.038Z,18.21
2018-08-16T03:35:06.136Z,18.25
2018-08-16T03:37:34.637Z,18.27
2018-08-16T03:40:03.188Z,18.29
2018-08-16T03:42:31.661Z,18.31
2018-08-16T03:45:00.169Z,18.30
2018-08-16T03:47:28.644Z,18.27
2018-08-16T03:49:58.145Z,18.25
2018-08-16T03:52:27.139Z,18.27
2018-08-16T03:54:56.825Z,18.26
2018-08-16T03:57:25.349Z,18.22
2018-08-16T03:59:53.884Z,18.23
2018-08-16T04:02:22.327Z,18.20
2018-08-16T04:04:51.471Z,18.18
2018-08-16T04:07:21.178Z,18.15
2018-08-16T04:09:49.666Z,18.14
2018-08-16T04:12:19.256Z,18.16
2018-08-16T04:14:48.259Z,18.24
2018-08-16T04:17:17.276Z,18.23
2018-08-16T04:19:46.776Z,18.22
2018-08-16T04:22:16.802Z,18.23
2018-08-16T04:24:46.305Z,18.19
2018-08-16T04:27:15.271Z,18.20
2018-08-16T04:29:43.847Z,18.13
2018-08-16T04:32:13.917Z,18.13
2018-08-16T04:34:42.390Z,18.09
2018-08-16T04:37:11.123Z,18.09
2018-08-16T04:39:39.664Z,18.05
2018-08-16T04:42:08.383Z,17.97
2018-08-16T04:44:37.486Z,17.97
2018-08-16T04:47:06.997Z,17.98
2018-08-16T04:49:36.162Z,17.99
2018-08-16T04:52:04.797Z,18.03
2018-08-16T04:54:33.399Z,18.07
2018-08-16T04:57:01.922Z,18.14
2018-08-16T04:59:30.348Z,18.23
2018-08-16T05:02:00.470Z,18.32
2018-08-16T05:04:28.886Z,18.33
2018-08-16T05:06:57.338Z,18.40
2018-08-16T05:09:26.268Z,18.48
2018-08-16T05:11:54.776Z,18.53
2018-08-16T05:14:23.245Z,18.59
2018-08-16T05:16:52.526Z,18.60
2018-08-16T05:19:21.737Z,18.59
2018-08-16T05:21:50.275Z,18.63
2018-08-16T05:24:18.664Z,18.63
2018-08-16T05:26:47.799Z,18.64
2018-08-16T05:29:16.456Z,18.67
2018-08-16T05:31:45.041Z,18.75
2018-08-16T05:34:14.820Z,18.86
2018-08-16T05:36:43.277Z,18.83
2018-08-16T05:39:13.357Z,18.93
2018-08-16T05:41:42.223Z,19.01
2018-08-16T05:44:10.851Z,18.99
2018-08-16T05:46:39.428Z,19.06
2018-08-16T05:49:08.119Z,19.08
2018-08-16T05:51:36.835Z,19.12
2018-08-16T05:54:09.580Z,19.21
2018-08-16T05:56:39.157Z,19.29
2018-08-16T05:59:07.924Z,19.33
2018-08-16T06:01:36.416Z,19.34
2018-08-16T06:04:05.603Z,19.41
2018-08-16T06:06:34.474Z,19.41
2018-08-16T06:09:03.394Z,19.50
2018-08-16T06:11:32.134Z,19.54
2018-08-16T06:14:01.194Z,19.56
2018-08-16T06:16:30.910Z,19.61
2018-08-16T06:18:59.417Z,19.68
2018-08-16T06:21:28.497Z,19.73
2018-08-16T06:23:57.647Z,19.76
2018-08-16T06:26:26.383Z,19.80
2018-08-16T06:28:55.099Z,19.84
2018-08-16T06:31:23.851Z,19.89
2018-08-16T06:33:52.575Z,19.95
2018-08-16T06:36:22.086Z,20.01
2018-08-16T06:38:50.673Z,20.07
2018-08-16T06:41:19.214Z,20.14
2018-08-16T06:43:47.825Z,20.19
2018-08-16T06:46:17.741Z,20.24
2018-08-16T06:48:47.152Z,20.31
2018-08-16T06:51:15.873Z,20.37
2018-08-16T06:53:45.355Z,20.43
2018-08-16T06:56:14.269Z,20.53
2018-08-16T06:58:42.911Z,20.58
2018-08-16T07:01:12.080Z,20.63
2018-08-16T07:03:40.589Z,20.67
2018-08-16T07:06:09.304Z,20.72
2018-08-16T07:08:37.817Z,20.74
2018-08-16T07:11:06.509Z,20.80
2018-08-16T07:13:35.646Z,20.83
2018-08-16T07:16:05.000Z,20.86
2018-08-16T07:18:33.495Z,20.87
2018-08-16T07:21:01.965Z,20.96
2018-08-16T07:23:30.720Z,21.00
2018-08-16T07:25:59.305Z,21.08
2018-08-16T07:28:28.706Z,21.14
2018-08-16T07:30:58.082Z,21.18
2018-08-16T07:33:26.569Z,21.24
2018-08-16T07:35:55.201Z,21.27
2018-08-16T07:38:23.677Z,21.30
2018-08-16T07:40:52.328Z,21.37
2018-08-16T07:43:21.229Z,21.41
2018-08-16T07:45:51.054Z,21.45
2018-08-16T07:48:19.489Z,21.49
2018-08-16T07:50:49.057Z,21.52
2018-08-16T07:53:17.538Z,21.56
2018-08-16T07:55:46.834Z,21.64
2018-08-16T07:58:15.573Z,21.70
2018-08-16T08:00:44.121Z,21.76
2018-08-16T08:03:12.960Z,21.79
2018-08-16T08:05:41.707Z,21.83
2018-08-16T08:08:11.293Z,21.84
2018-08-16T08:10:41.496Z,21.90
2018-08-16T08:13:10.056Z,21.95
2018-08-16T08:15:38.724Z,22.00
2018-08-16T08:18:07.669Z,22.06
2018-08-16T08:20:36.187Z,22.14
2018-08-16T08:23:04.805Z,22.20
2018-08-16T08:25:34.140Z,22.24
2018-08-16T08:28:03.022Z,22.29
2018-08-16T08:30:31.414Z,22.33
2018-08-16T08:33:00.087Z,22.38
2018-08-16T08:35:28.621Z,22.45
2018-08-16T08:38:03.763Z,22.52
2018-08-16T08:40:32.297Z,22.59
2018-08-16T08:43:00.773Z,22.63
2018-08-16T08:45:29.678Z,22.69
2018-08-16T08:47:59.194Z,22.74
2018-08-16T08:50:28.873Z,22.78
2018-08-16T08:53:08.501Z,22.84
2018-08-16T08:55:48.172Z,22.87
2018-08-16T08:58:27.914Z,22.96
2018-08-16T09:00:56.513Z,23.04
2018-08-16T09:03:25.128Z,23.09
2018-08-16T09:05:53.666Z,23.15
2018-08-16T09:08:22.292Z,23.21
2018-08-16T09:11:06.397Z,23.26
2018-08-16T09:13:46.270Z,23.31
2018-08-16T09:16:21.559Z,23.36
2018-08-16T09:18:50.211Z,23.43
2018-08-16T09:21:20.000Z,23.47
2018-08-16T09:23:48.735Z,23.54
2018-08-16T09:26:22.513Z,23.60
2018-08-16T09:28:50.981Z,23.65
2018-08-16T09:31:30.751Z,23.68
2018-08-16T09:34:24.442Z,23.78
2018-08-16T09:36:53.198Z,23.87
2018-08-16T09:39:22.373Z,23.94
2018-08-16T09:41:51.037Z,23.98
2018-08-16T09:44:20.798Z,24.00
2018-08-16T09:47:15.662Z,24.05
2018-08-16T09:49:51.285Z,24.09
2018-08-16T09:52:20.936Z,24.13
2018-08-16T09:54:50.616Z,24.20
2018-08-16T09:57:19.267Z,24.29
2018-08-16T09:59:47.887Z,24.43
2018-08-16T10:02:18.058Z,24.55
2018-08-16T10:04:47.256Z,24.70
2018-08-16T10:07:16.078Z,24.76
2018-08-16T10:09:44.603Z,24.77
2018-08-16T10:12:13.345Z,24.80
2018-08-16T10:14:42.346Z,24.83
2018-08-16T10:17:10.845Z,24.87
2018-08-16T10:19:39.580Z,24.89
2018-08-16T10:22:09.845Z,24.93
2018-08-16T10:24:39.019Z,25.00
2018-08-16T10:27:07.602Z,25.04
2018-08-16T10:29:36.250Z,25.13
2018-08-16T10:32:05.677Z,25.15
2018-08-16T10:34:34.305Z,25.24
2018-08-16T10:37:03.706Z,25.26
2018-08-16T10:39:32.759Z,25.30
2018-08-16T10:42:01.715Z,25.43
2018-08-16T10:44:30.150Z,25.53
2018-08-16T10:46:59.013Z,25.67
2018-08-16T10:49:27.527Z,25.74
2018-08-16T10:51:57.135Z,25.81
2018-08-16T10:54:25.648Z,25.79
2018-08-16T10:56:54.200Z,25.77
2018-08-16T10:59:22.680Z,25.77
2018-08-16T11:01:51.394Z,25.78
2018-08-16T11:04:20.115Z,25.80
2018-08-16T11:06:49.541Z,25.87
2018-08-16T11:09:19.107Z,25.92
2018-08-16T11:11:47.580Z,25.99
2018-08-16T11:14:16.008Z,26.10
2018-08-16T11:16:44.520Z,26.20
2018-08-16T11:19:13.048Z,26.31
2018-08-16T11:21:41.578Z,26.37
2018-08-16T11:24:10.132Z,26.49
2018-08-16T11:26:38.729Z,26.64
2018-08-16T11:29:07.314Z,26.72
2018-08-16T11:31:35.836Z,26.75
2018-08-16T11:34:04.317Z,26.72
2018-08-16T11:36:32.789Z,26.75
2018-08-16T11:39:02.061Z,26.78
2018-08-16T11:41:31.048Z,26.91
2018-08-16T11:44:01.290Z,27.01
2018-08-16T11:46:29.878Z,27.17
2018-08-16T11:48:58.536Z,27.23
2018-08-16T11:51:27.583Z,27.21
2018-08-16T11:53:56.384Z,27.30
2018-08-16T11:56:24.894Z,27.33
2018-08-16T11:58:54.187Z,27.35
2018-08-16T12:01:22.678Z,27.46
2018-08-16T12:03:51.244Z,27.60
2018-08-16T12:06:19.747Z,27.71
2018-08-16T12:08:48.319Z,27.79
2018-08-16T12:11:17.092Z,27.83
2018-08-16T12:13:46.148Z,27.84
2018-08-16T12:16:14.765Z,27.89
2018-08-16T12:18:43.433Z,28.01
2018-08-16T12:21:11.977Z,28.09
2018-08-16T12:23:40.937Z,28.13
2018-08-16T12:26:09.708Z,28.18
2018-08-16T12:28:38.465Z,28.19
2018-08-16T12:31:07.048Z,28.15
2018-08-16T12:33:36.051Z,28.21
2018-08-16T12:36:05.782Z,28.32
2018-08-16T12:38:35.024Z,28.43
2018-08-16T12:41:04.004Z,28.46
2018-08-16T12:43:35.160Z,28.53
2018-08-16T12:46:03.732Z,28.63
2018-08-16T12:48:32.408Z,28.63
2018-08-16T12:51:01.078Z,28.59
2018-08-16T12:53:31.624Z,28.64
2018-08-16T12:56:00.110Z,28.71
2018-08-16T12:58:28.567Z,28.74
2018-08-16T13:00:57.102Z,28.88
2018-08-16T13:03:26.028Z,29.02
2018-08-16T13:05:54.977Z,29.04
2018-08-16T13:08:24.229Z,29.19
2018-08-16T13:10:53.645Z,29.34
2018-08-16T13:13:22.089Z,29.45
2018-08-16T13:15:52.218Z,29.58
2018-08-16T13:18:21.066Z,29.67
2018-08-16T13:20:49.566Z,29.71
2018-08-16T13:23:18.763Z,29.82
2018-08-16T13:25:48.485Z,29.80
2018-08-16T13:28:17.009Z,29.93
2018-08-16T13:30:45.418Z,29.89
2018-08-16T13:33:13.943Z,29.98
2018-08-16T13:35:42.971Z,30.07
2018-08-16T13:38:11.670Z,30.12
2018-08-16T13:40:40.152Z,30.17
2018-08-16T13:43:08.696Z,30.27
2018-08-16T13:45:37.528Z,30.30
2018-08-16T13:48:06.520Z,30.35
2018-08-16T13:50:36.686Z,30.51
2018-08-16T13:53:07.436Z,30.65
2018-08-16T13:55:36.853Z,30.69
2018-08-16T13:58:05.733Z,30.78
2018-08-16T14:00:36.163Z,30.88
2018-08-16T14:03:05.589Z,30.92
2018-08-16T14:05:34.034Z,30.94
2018-08-16T14:08:12.201Z,30.94
2018-08-16T14:10:41.758Z,30.89
2018-08-16T14:13:10.281Z,30.87
2018-08-16T14:15:38.822Z,30.91
2018-08-16T14:18:07.914Z,30.87
2018-08-16T14:20:36.585Z,30.84
2018-08-16T14:23:06.278Z,30.73
2018-08-16T14:25:35.637Z,30.85
2018-08-16T14:28:04.852Z,30.99
2018-08-16T14:30:33.402Z,31.06
2018-08-16T14:33:02.160Z,31.16
2018-08-16T14:35:30.644Z,31.18
2018-08-16T14:38:00.665Z,31.21
2018-08-16T14:40:30.545Z,31.12
2018-08-16T14:42:59.676Z,31.09
2018-08-16T14:45:29.100Z,31.07
2018-08-16T14:48:00.656Z,31.14
2018-08-16T14:50:29.158Z,31.24
2018-08-16T14:52:57.643Z,31.39
2018-08-16T14:55:27.296Z,31.53
2018-08-16T14:57:57.048Z,31.59
2018-08-16T15:00:27.564Z,31.55
2018-08-16T15:02:56.602Z,31.45
2018-08-16T15:05:25.251Z,31.42
2018-08-16T15:07:53.744Z,31.38
2018-08-16T15:10:23.342Z,31.38
2018-08-16T15:12:52.032Z,31.39
2018-08-16T15:15:22.221Z,31.34
2018-08-16T15:17:50.861Z,31.37
2018-08-16T15:20:20.850Z,31.40
2018-08-16T15:22:49.946Z,31.47
2018-08-16T15:25:18.392Z,31.59
2018-08-16T15:27:48.741Z,31.62
2018-08-16T15:30:17.270Z,31.62
2018-08-16T15:32:47.183Z,31.59
2018-08-16T15:35:17.195Z,31.39
2018-08-16T15:37:46.763Z,31.24
2018-08-16T15:40:15.325Z,31.00
2018-08-16T15:42:44.407Z,30.94
2018-08-16T15:45:12.871Z,30.85
2018-08-16T15:47:41.979Z,30.83
2018-08-16T15:50:10.531Z,30.81
2018-08-16T15:52:39.507Z,30.83
2018-08-16T15:55:09.088Z,30.84
2018-08-16T15:57:38.228Z,30.90
2018-08-16T16:00:10.297Z,30.99
2018-08-16T16:02:39.589Z,30.89
2018-08-16T16:05:09.719Z,30.82
2018-08-16T16:07:39.201Z,30.74
2018-08-16T16:10:08.629Z,30.70
2018-08-16T16:12:38.133Z,30.64
2018-08-16T16:15:08.319Z,30.58
2018-08-16T16:17:36.929Z,30.40
2018-08-16T16:20:07.059Z,30.36
2018-08-16T16:22:36.175Z,30.24
2018-08-16T16:25:05.193Z,30.17
2018-08-16T16:27:35.137Z,30.08
2018-08-16T16:30:06.846Z,29.96
2018-08-16T16:32:37.036Z,29.85
2018-08-16T16:35:06.267Z,29.70
2018-08-16T16:37:34.903Z,29.58
2018-08-16T16:40:03.690Z,29.58
2018-08-16T16:42:32.272Z,29.56
2018-08-16T16:45:01.329Z,29.57
2018-08-16T16:47:30.158Z,29.54
2018-08-16T16:49:58.736Z,29.54
2018-08-16T16:52:27.953Z,29.52
2018-08-16T16:54:56.828Z,29.48
2018-08-16T16:57:26.360Z,29.40
2018-08-16T16:59:55.424Z,29.36
2018-08-16T17:02:24.834Z,29.29
2018-08-16T17:04:54.657Z,29.15
2018-08-16T17:07:23.451Z,29.05
2018-08-16T17:09:52.776Z,28.93
2018-08-16T17:12:22.669Z,28.84
2018-08-16T17:14:51.490Z,28.78
2018-08-16T17:17:20.072Z,28.68
2018-08-16T17:19:48.527Z,28.62
2018-08-16T17:22:17.156Z,28.55
2018-08-16T17:24:45.620Z,28.47
2018-08-16T17:27:15.086Z,28.39
2018-08-16T17:29:43.566Z,28.31
2018-08-16T17:32:12.946Z,28.27
2018-08-16T17:34:41.452Z,28.20
2018-08-16T17:37:09.887Z,28.11
2018-08-16T17:39:38.519Z,28.05
2018-08-16T17:42:07.375Z,27.98
2018-08-16T17:44:35.785Z,27.89
2018-08-16T17:47:04.423Z,27.81
2018-08-16T17:49:32.962Z,27.73
2018-08-16T17:52:01.533Z,27.65
2018-08-16T17:54:30.640Z,27.57
2018-08-16T17:57:00.211Z,27.54
2018-08-16T17:59:29.692Z,27.49
2018-08-16T18:01:59.851Z,27.43
2018-08-16T18:04:29.268Z,27.37
2018-08-16T18:06:58.454Z,27.31
2018-08-16T18:09:27.564Z,27.25
2018-08-16T18:11:56.083Z,27.19
2018-08-16T18:14:24.777Z,27.13
2018-08-16T18:16:53.526Z,27.06
2018-08-16T18:19:22.595Z,26.97
2018-08-16T18:21:51.079Z,26.90
2018-08-16T18:24:19.831Z,26.83
2018-08-16T18:26:50.148Z,26.75
2018-08-16T18:29:18.601Z,26.67
2018-08-16T18:31:47.129Z,26.63
2018-08-16T18:34:16.374Z,26.55
2018-08-16T18:36:45.512Z,26.45
2018-08-16T18:39:13.935Z,26.40
2018-08-16T18:41:42.933Z,26.42
2018-08-16T18:44:12.998Z,26.58
2018-08-16T18:46:41.830Z,26.64
2018-08-16T18:49:10.379Z,26.66
2018-08-16T18:51:39.806Z,26.63
2018-08-16T18:54:09.139Z,26.56
2018-08-16T18:56:37.849Z,26.48
2018-08-16T18:59:06.832Z,26.42
2018-08-16T19:01:35.476Z,26.39
2018-08-16T19:04:03.997Z,26.37
2018-08-16T19:06:33.593Z,26.33
2018-08-16T19:09:02.507Z,26.30
2018-08-16T19:11:31.682Z,26.24
2018-08-16T19:14:00.308Z,26.16
2018-08-16T19:16:28.783Z,26.19
2018-08-16T19:18:57.623Z,26.17
2018-08-16T19:21:26.619Z,26.18
2018-08-16T19:23:55.278Z,26.22
2018-08-16T19:26:23.957Z,26.30
2018-08-16T19:28:52.392Z,26.31
2018-08-16T19:31:21.873Z,26.23
2018-08-16T19:33:52.269Z,26.18
2018-08-16T19:36:20.806Z,26.14
2018-08-16T19:38:49.293Z,26.16
2018-08-16T19:41:21.576Z,26.16
2018-08-16T19:43:52.107Z,26.19
2018-08-16T19:46:22.178Z,26.20
2018-08-16T19:48:51.121Z,26.21
2018-08-16T19:51:21.035Z,26.22
2018-08-16T19:53:49.664Z,26.24
2018-08-16T19:56:20.208Z,26.26
2018-08-16T19:58:50.050Z,26.25
2018-08-16T20:01:24.263Z,26.24
2018-08-16T20:03:57.215Z,26.20
2018-08-16T20:06:27.472Z,26.15
2018-08-16T20:08:57.499Z,26.12
2018-08-16T20:11:28.226Z,26.09
2018-08-16T20:13:57.021Z,26.06
2018-08-16T20:16:26.669Z,26.04
2018-08-16T20:18:55.509Z,26.01
2018-08-16T20:21:27.495Z,25.96
2018-08-16T20:23:58.684Z,25.93
2018-08-16T20:26:30.580Z,25.88
2018-08-16T20:29:00.371Z,25.82
2018-08-16T20:31:29.124Z,25.79
2018-08-16T20:34:00.681Z,25.74
2018-08-16T20:36:30.217Z,25.68
2018-08-16T20:38:59.794Z,25.66
2018-08-16T20:41:28.233Z,25.60
2018-08-16T20:43:57.798Z,25.56
2018-08-16T20:46:28.120Z,25.48
2018-08-16T20:48:57.740Z,25.43
2018-08-16T20:51:26.240Z,25.38
2018-08-16T20:53:56.361Z,25.34
2018-08-16T20:56:25.697Z,25.26
2018-08-16T20:58:54.976Z,25.25
2018-08-16T21:01:23.861Z,25.19
2018-08-16T21:03:52.803Z,25.17
2018-08-16T21:06:22.794Z,25.15
2018-08-16T21:08:53.526Z,25.11
2018-08-16T21:11:23.639Z,25.10
2018-08-16T21:13:52.329Z,25.04
2018-08-16T21:16:20.983Z,25.04
2018-08-16T21:18:50.631Z,25.03
2018-08-16T21:21:19.554Z,24.96
2018-08-16T21:23:48.182Z,24.92
2018-08-16T21:26:21.594Z,24.89
2018-08-16T21:28:50.565Z,24.81
2018-08-16T21:31:19.565Z,24.80
2018-08-16T21:33:47.967Z,24.80
2018-08-16T21:36:19.378Z,24.69
2018-08-16T21:38:48.029Z,24.61
2018-08-16T21:41:16.680Z,24.58
2018-08-16T21:43:45.535Z,24.46
2018-08-16T21:46:14.397Z,24.39
2018-08-16T21:48:43.852Z,24.37
2018-08-16T21:51:13.635Z,24.34
2018-08-16T21:53:42.241Z,24.30
2018-08-16T21:56:14.521Z,24.25
2018-08-16T21:58:43.192Z,24.11
2018-08-16T22:01:11.748Z,24.02
2018-08-16T22:03:40.358Z,23.94
2018-08-16T22:06:11.997Z,23.90
2018-08-16T22:08:45.749Z,23.86
2018-08-16T22:11:14.778Z,23.81
2018-08-16T22:13:43.652Z,23.71
2018-08-16T22:16:12.283Z,23.72
2018-08-16T22:18:41.286Z,23.69
2018-08-16T22:21:10.916Z,23.64
2018-08-16T22:23:39.771Z,23.64
2018-08-16T22:26:08.423Z,23.63
2018-08-16T22:28:37.209Z,23.60
2018-08-16T22:31:05.934Z,23.48
2018-08-16T22:33:34.476Z,23.45
2018-08-16T22:36:02.864Z,23.30
2018-08-16T22:38:31.410Z,23.22
2018-08-16T22:40:59.852Z,23.27
2018-08-16T22:43:28.386Z,23.23
2018-08-16T22:45:56.927Z,23.18
2018-08-16T22:48:25.837Z,23.15
2018-08-16T22:50:54.345Z,23.09
2018-08-16T22:53:27.025Z,23.03
2018-08-16T22:55:55.869Z,22.95
2018-08-16T22:58:24.355Z,22.96
2018-08-16T23:00:53.067Z,22.90
2018-08-16T23:03:22.637Z,22.85
2018-08-16T23:05:51.295Z,22.74
2018-08-16T23:08:19.752Z,22.70
2018-08-16T23:10:48.602Z,22.66
2018-08-16T23:13:17.293Z,22.62
2018-08-16T23:15:45.819Z,22.59
2018-08-16T23:18:14.868Z,22.62
2018-08-16T23:20:43.407Z,22.60
2018-08-16T23:23:12.975Z,22.61
2018-08-16T23:25:41.550Z,22.63
2018-08-16T23:28:10.111Z,22.53
2018-08-16T23:30:38.708Z,22.49
2018-08-16T23:33:07.957Z,22.42
2018-08-16T23:35:36.556Z,22.43
2018-08-16T23:38:05.140Z,22.39
2018-08-16T23:40:33.622Z,22.40
2018-08-16T23:43:02.163Z,22.42
2018-08-16T23:45:30.680Z,22.45
2018-08-16T23:48:10.349Z,22.50
2018-08-16T23:50:39.448Z,22.47
2018-08-16T23:53:07.841Z,22.47
2018-08-16T23:55:36.441Z,22.39
2018-08-16T23:58:05.001Z,22.40
